createdAt,value
2019-04-27T00:00:03.827Z,8.7
2019-04-27T00:05:06.137Z,8.7
2019-04-27T00:10:08.592Z,8.7
2019-04-27T00:15:11.024Z,8.7
2019-04-27T00:20:13.527Z,8.7
2019-04-27T00:25:15.937Z,8.6
2019-04-27T00:30:18.397Z,8.5
2019-04-27T00:35:20.929Z,8.5
2019-04-27T00:40:23.608Z,8.5
2019-04-27T00:45:25.783Z,8.6
2019-04-27T00:50:28.571Z,8.6
2019-04-27T00:55:31.111Z,8.6
2019-04-27T01:00:33.698Z,8.6
2019-04-27T01:05:35.741Z,8.6
2019-04-27T01:10:38.079Z,8.6
2019-04-27T01:15:40.694Z,8.5
2019-04-27T01:20:43.056Z,8.5
2019-04-27T01:25:45.695Z,8.5
2019-04-27T01:30:48.978Z,8.6
2019-04-27T01:35:50.596Z,8.6
2019-04-27T01:40:52.882Z,8.6
2019-04-27T01:45:55.280Z,8.6
2019-04-27T01:50:59.178Z,8.6
2019-04-27T01:56:00.189Z,8.5
2019-04-27T02:01:02.642Z,8.4
2019-04-27T02:06:05.539Z,8.4
2019-04-27T02:11:09.229Z,8.3
2019-04-27T02:16:10.243Z,8.3
2019-04-27T02:21:12.872Z,8.3
2019-04-27T02:26:15.054Z,8.2
2019-04-27T02:36:20.262Z,8.3
2019-04-27T02:41:22.299Z,8.3
2019-04-27T02:46:24.989Z,8.2
2019-04-27T02:51:29.684Z,8.2
2019-04-27T02:56:30.471Z,8.2
2019-04-27T03:01:32.151Z,8.2
2019-04-27T03:06:34.698Z,8.2
2019-04-27T03:11:39.326Z,8.3
2019-04-27T03:16:39.674Z,8.3
2019-04-27T03:21:42.466Z,8.3
2019-04-27T03:26:44.632Z,8.3
2019-04-27T03:31:52.937Z,8.4
2019-04-27T03:41:52.852Z,8.4
2019-04-27T03:46:54.356Z,8.4
2019-04-27T03:51:57.123Z,8.4
2019-04-27T04:02:02.339Z,8.5
2019-04-27T04:07:04.155Z,8.5
2019-04-27T04:12:06.634Z,8.5
2019-04-27T04:17:09.827Z,8.5
2019-04-27T04:22:11.442Z,8.6
2019-04-27T04:27:14.002Z,8.6
2019-04-27T04:32:16.459Z,8.7
2019-04-27T04:37:19.567Z,8.7
2019-04-27T04:42:21.375Z,8.7
2019-04-27T04:47:23.751Z,8.7
2019-04-27T04:52:26.220Z,8.8
2019-04-27T04:57:29.888Z,8.8
2019-04-27T05:02:31.111Z,8.8
2019-04-27T05:07:33.624Z,8.8
2019-04-27T05:12:36.114Z,8.9
2019-04-27T05:17:39.855Z,8.8
2019-04-27T05:22:41.050Z,8.8
2019-04-27T05:27:43.419Z,8.9
2019-04-27T05:32:45.910Z,9
2019-04-27T05:37:49.174Z,9.1
2019-04-27T05:42:55.136Z,9.1
2019-04-27T05:47:53.316Z,9.2
2019-04-27T05:52:55.705Z,9.5
2019-04-27T05:57:59.125Z,9.7
2019-04-27T06:03:00.613Z,9.8
2019-04-27T06:08:03.126Z,9.9
2019-04-27T06:13:05.544Z,10
2019-04-27T06:18:09.259Z,10.1
2019-04-27T06:23:10.451Z,10.3
2019-04-27T06:28:13.207Z,10.5
2019-04-27T06:33:27.821Z,10.6
2019-04-27T06:38:19.030Z,10.8
2019-04-27T06:43:20.321Z,11
2019-04-27T06:48:22.792Z,11.2
2019-04-27T06:53:25.182Z,11.3
2019-04-27T06:58:29.227Z,11.5
2019-04-27T07:03:30.263Z,11.8
2019-04-27T07:08:32.553Z,12.1
2019-04-27T07:13:34.991Z,12.3
2019-04-27T07:18:37.539Z,12.4
2019-04-27T07:23:39.936Z,12.9
2019-04-27T07:28:42.678Z,13.5
2019-04-27T07:33:45.040Z,14.5
2019-04-27T07:43:50.033Z,16
2019-04-27T07:48:52.221Z,16.8
2019-04-27T07:53:54.778Z,16.4
2019-04-27T07:58:57.428Z,16
2019-04-27T08:03:59.674Z,15.8
2019-04-27T08:14:04.560Z,14.9
2019-04-27T08:19:07.037Z,14.8
2019-04-27T08:24:11.074Z,14.9
2019-04-27T08:29:11.874Z,15.3
2019-04-27T08:34:14.370Z,15.8
2019-04-27T08:39:18.598Z,16.3
2019-04-27T08:44:19.467Z,16.6
2019-04-27T08:49:21.918Z,16.9
2019-04-27T08:54:24.202Z,17.4
2019-04-27T08:59:26.657Z,17.9
2019-04-27T09:04:29.099Z,18.7
2019-04-27T09:09:31.555Z,19.3
2019-04-27T09:14:34.031Z,20.9
2019-04-27T09:19:36.626Z,23.4
2019-04-27T09:24:39.599Z,24.6
2019-04-27T09:29:41.392Z,25.9
2019-04-27T09:34:44.070Z,27.5
2019-04-27T09:39:46.347Z,29
2019-04-27T09:44:48.736Z,29.2
2019-04-27T09:49:51.248Z,28.7
2019-04-27T09:54:53.748Z,27.6
2019-04-27T09:59:56.497Z,26.5
2019-04-27T10:04:58.602Z,25.7
2019-04-27T10:10:01.158Z,25.8
2019-04-27T10:15:03.552Z,27.6
2019-04-27T10:20:06.092Z,28.8
2019-04-27T10:25:08.428Z,31.3
2019-04-27T10:30:10.935Z,31.4
2019-04-27T10:35:13.369Z,29.4
2019-04-27T10:40:16.158Z,27.6
2019-04-27T10:45:18.313Z,26.6
2019-04-27T10:50:20.744Z,25.8
2019-04-27T10:55:23.243Z,25.1
2019-04-27T11:00:26.052Z,24.3
2019-04-27T11:05:31.129Z,24
2019-04-27T11:10:30.582Z,24.1
2019-04-27T11:15:33.068Z,25
2019-04-27T11:20:36.242Z,29
2019-04-27T11:25:37.940Z,30.9
2019-04-27T11:30:40.419Z,29.3
2019-04-27T11:35:42.921Z,26.6
2019-04-27T11:40:46.598Z,24.5
2019-04-27T11:45:47.768Z,23
2019-04-27T11:50:50.544Z,22.1
2019-04-27T11:55:52.863Z,22
2019-04-27T12:00:55.432Z,25.8
2019-04-27T12:06:00.002Z,29.3
2019-04-27T12:11:00.054Z,29.1
2019-04-27T12:16:02.597Z,29.7
2019-04-27T12:21:06.088Z,30.3
2019-04-27T12:26:07.430Z,29.1
2019-04-27T12:31:09.887Z,28
2019-04-27T12:36:12.456Z,27.5
2019-04-27T12:41:14.941Z,27.1
2019-04-27T12:46:17.391Z,25.2
2019-04-27T12:51:21.005Z,24.2
2019-04-27T12:56:22.173Z,23.3
2019-04-27T13:01:25.821Z,22.1
2019-04-27T13:06:27.236Z,20.9
2019-04-27T13:11:29.584Z,20.3
2019-04-27T13:16:32.079Z,20
2019-04-27T13:21:36.394Z,19.8
2019-04-27T13:26:38.063Z,19.7
2019-04-27T13:31:39.481Z,19.5
2019-04-27T13:36:41.951Z,19.2
2019-04-27T13:41:46.089Z,18.7
2019-04-27T13:46:46.760Z,18.4
2019-04-27T13:51:49.307Z,18.1
2019-04-27T13:56:51.678Z,17.7
2019-04-27T14:01:54.147Z,17.3
2019-04-27T14:06:56.618Z,16.9
2019-04-27T14:11:59.069Z,16.7
2019-04-27T14:17:01.520Z,16.7
2019-04-27T14:22:04.087Z,16.8
2019-04-27T14:32:08.941Z,16.8
2019-04-27T14:37:11.370Z,17
2019-04-27T14:42:13.808Z,17
2019-04-27T14:47:16.418Z,17.1
2019-04-27T14:52:18.931Z,17.3
2019-04-27T14:57:21.228Z,17.6
2019-04-27T15:02:23.662Z,17.6
2019-04-27T15:07:26.116Z,17.4
2019-04-27T15:17:31.075Z,17
2019-04-27T15:22:33.510Z,16.6
2019-04-27T15:27:37.503Z,16.2
2019-04-27T15:32:40.533Z,15.9
2019-04-27T15:37:40.960Z,15.7
2019-04-27T15:42:49.488Z,15.5
2019-04-27T15:47:47.617Z,15.5
2019-04-27T15:57:50.734Z,15.5
2019-04-27T16:02:53.145Z,15.7
2019-04-27T16:07:59.061Z,15.8
2019-04-27T16:13:06.269Z,16
2019-04-27T16:18:00.619Z,16.2
2019-04-27T16:23:04.261Z,16.1
2019-04-27T16:28:09.493Z,15.8
2019-04-27T16:33:08.638Z,15.4
2019-04-27T16:38:10.413Z,14.9
2019-04-27T16:43:12.879Z,14.5
2019-04-27T16:48:15.328Z,14.4
2019-04-27T16:53:18.512Z,14.3
2019-04-27T16:58:20.716Z,14.1
2019-04-27T17:03:22.649Z,13.9
2019-04-27T17:08:26.502Z,13.6
2019-04-27T17:13:28.002Z,13.3
2019-04-27T17:18:30.886Z,13
2019-04-27T17:23:32.485Z,12.7
2019-04-27T17:28:37.449Z,12.4
2019-04-27T17:33:38.079Z,12.1
2019-04-27T17:38:42.490Z,11.9
2019-04-27T17:43:42.695Z,11.7
2019-04-27T17:48:44.815Z,11.8
2019-04-27T17:53:48.191Z,11.7
2019-04-27T17:58:52.191Z,11.7
2019-04-27T18:03:58.783Z,11.6
2019-04-27T18:08:54.838Z,11.6
2019-04-27T18:14:00.267Z,11.5
2019-04-27T18:19:07.751Z,11.4
2019-04-27T18:24:01.981Z,11.3
2019-04-27T18:29:04.392Z,11.2
2019-04-27T18:34:08.484Z,11.1
2019-04-27T18:39:13.328Z,11
2019-04-27T18:44:11.798Z,10.9
2019-04-27T18:49:14.280Z,10.9
2019-04-27T18:54:18.367Z,10.8
2019-04-27T18:59:19.188Z,10.7
2019-04-27T19:04:21.696Z,10.6
2019-04-27T19:09:24.063Z,10.6
2019-04-27T19:14:28.120Z,10.6
2019-04-27T19:19:29.024Z,10.7
2019-04-27T19:24:31.454Z,10.7
2019-04-27T19:29:33.892Z,10.7
2019-04-27T19:34:36.476Z,10.6
2019-04-27T19:39:39.392Z,10.6
2019-04-27T19:44:41.368Z,10.5
2019-04-27T19:49:43.755Z,10.4
2019-04-27T19:54:46.181Z,10.3
2019-04-27T19:59:49.006Z,10.2
2019-04-27T20:04:51.120Z,10.1
2019-04-27T20:09:53.591Z,9.9
2019-04-27T20:14:56.185Z,9.7
2019-04-27T20:25:01.796Z,9.4
2019-04-27T20:30:03.560Z,9.3
2019-04-27T20:35:05.860Z,9.2
2019-04-27T20:40:08.293Z,9.1
2019-04-27T20:45:11.945Z,8.9
2019-04-27T20:50:13.254Z,8.7
2019-04-27T20:55:15.657Z,8.6
2019-04-27T21:00:18.237Z,8.5
2019-04-27T21:05:21.109Z,8.4
2019-04-27T21:10:23.053Z,8.2
2019-04-27T21:15:25.553Z,8.1
2019-04-27T21:20:28.005Z,8.1
2019-04-27T21:25:31.472Z,8.1
2019-04-27T21:30:32.878Z,8.1
2019-04-27T21:35:35.390Z,8.1
2019-04-27T21:40:37.786Z,8
2019-04-27T21:50:42.685Z,8
2019-04-27T21:55:45.519Z,7.9
2019-04-27T22:00:47.661Z,7.8
2019-04-27T22:05:51.564Z,7.8
2019-04-27T22:10:52.519Z,7.8
2019-04-27T22:15:54.963Z,7.9
2019-04-27T22:20:57.463Z,7.8
2019-04-27T22:26:01.209Z,7.9
2019-04-27T22:31:02.341Z,7.9
2019-04-27T22:36:04.991Z,7.9
2019-04-27T22:41:07.259Z,7.9
2019-04-27T22:46:11.291Z,7.9
2019-04-27T22:51:12.200Z,7.8
2019-04-27T22:56:14.702Z,7.8
2019-04-27T23:01:17.099Z,7.8
2019-04-27T23:06:21.458Z,7.8
2019-04-27T23:11:22.111Z,7.8
2019-04-27T23:16:24.624Z,7.8
2019-04-27T23:21:26.933Z,7.7
2019-04-27T23:26:30.963Z,7.7
2019-04-27T23:31:32.261Z,7.7
2019-04-27T23:36:34.459Z,7.7
2019-04-27T23:41:36.880Z,7.7
2019-04-27T23:46:39.415Z,7.6
2019-04-27T23:51:41.673Z,7.6
2019-04-27T23:56:44.124Z,7.6
